createdAt,value
2022-09-23T00:01:22.417Z,81.65
2022-09-23T00:03:50.314Z,82.38
2022-09-23T00:06:23.123Z,82.08
2022-09-23T00:08:51.339Z,82.16
2022-09-23T00:11:22.847Z,82.30
2022-09-23T00:13:54.016Z,82.66
2022-09-23T00:16:32.652Z,83.04
2022-09-23T00:19:02.927Z,83.13
2022-09-23T00:21:30.651Z,83.27
2022-09-23T00:24:00.732Z,83.19
2022-09-23T00:26:29.071Z,82.94
2022-09-23T00:28:59.108Z,82.80
2022-09-23T00:31:27.460Z,82.83
2022-09-23T00:33:59.147Z,83.46
2022-09-23T00:36:27.736Z,83.55
2022-09-23T00:38:55.921Z,83.77
2022-09-23T00:41:24.569Z,84.33
2022-09-23T00:43:54.161Z,84.52
2022-09-23T00:46:35.705Z,84.95
2022-09-23T00:49:11.481Z,84.54
2022-09-23T00:51:50.333Z,84.70
2022-09-23T00:54:19.997Z,85.00
2022-09-23T00:56:47.384Z,85.15
2022-09-23T00:59:17.606Z,85.30
2022-09-23T01:01:46.914Z,85.34
2022-09-23T01:04:14.878Z,85.37
2022-09-23T01:06:43.016Z,85.75
2022-09-23T01:09:10.561Z,86.09
2022-09-23T01:11:49.152Z,85.69
2022-09-23T01:14:22.704Z,85.52
2022-09-23T01:17:47.902Z,85.88
2022-09-23T01:20:50.627Z,85.65
2022-09-23T01:23:27.543Z,85.18
2022-09-23T01:26:23.595Z,85.22
2022-09-23T01:29:04.192Z,84.59
2022-09-23T01:32:03.384Z,84.16
2022-09-23T01:34:35.586Z,83.98
2022-09-23T01:37:24.898Z,84.79
2022-09-23T01:40:06.425Z,83.73
2022-09-23T01:42:42.006Z,83.93
2022-09-23T01:45:19.918Z,83.86
2022-09-23T01:48:14.049Z,84.28
2022-09-23T01:50:57.840Z,84.16
2022-09-23T01:53:44.587Z,83.71
2022-09-23T01:56:27.503Z,84.74
2022-09-23T01:59:21.616Z,85.24
2022-09-23T02:02:19.735Z,85.50
2022-09-23T02:05:00.732Z,85.54
2022-09-23T02:07:44.703Z,85.09
2022-09-23T02:10:24.489Z,85.12
2022-09-23T02:12:59.234Z,84.97
2022-09-23T02:15:38.247Z,85.08
2022-09-23T02:18:15.277Z,84.87
2022-09-23T02:20:45.220Z,84.90
2022-09-23T02:23:17.296Z,84.85
2022-09-23T02:26:21.879Z,85.27
2022-09-23T02:28:57.321Z,84.96
2022-09-23T02:31:37.821Z,84.84
2022-09-23T02:34:45.228Z,84.58
2022-09-23T02:37:26.347Z,84.92
2022-09-23T02:40:29.358Z,85.09
2022-09-23T02:43:19.935Z,84.64
2022-09-23T02:45:48.241Z,84.76
2022-09-23T02:48:22.821Z,84.26
2022-09-23T02:50:50.492Z,84.98
2022-09-23T02:53:18.968Z,85.62
2022-09-23T02:55:47.193Z,85.38
2022-09-23T02:58:14.666Z,85.70
2022-09-23T03:01:11.473Z,85.12
2022-09-23T03:03:49.861Z,84.93
2022-09-23T03:07:01.484Z,85.28
2022-09-23T03:09:47.671Z,85.51
2022-09-23T03:12:25.166Z,85.58
2022-09-23T03:15:08.612Z,85.77
2022-09-23T03:17:40.616Z,85.21
2022-09-23T03:20:15.417Z,85.84
2022-09-23T03:23:06.714Z,85.37
2022-09-23T03:25:39.415Z,85.83
2022-09-23T03:28:09.533Z,86.43
2022-09-23T03:30:37.821Z,86.82
2022-09-23T03:33:09.679Z,86.99
2022-09-23T03:36:02.611Z,87.22
2022-09-23T03:38:38.797Z,87.11
2022-09-23T03:41:12.091Z,86.58
2022-09-23T03:43:40.130Z,86.88
2022-09-23T03:46:08.903Z,86.64
2022-09-23T03:48:39.646Z,86.93
2022-09-23T03:51:23.891Z,86.43
2022-09-23T03:53:53.941Z,85.56
2022-09-23T03:56:21.231Z,85.38
2022-09-23T03:58:48.997Z,85.97
2022-09-23T04:01:16.922Z,85.90
2022-09-23T04:03:46.181Z,85.33
2022-09-23T04:06:13.693Z,85.31
2022-09-23T04:08:41.243Z,85.62
2022-09-23T04:11:08.571Z,85.57
2022-09-23T04:13:36.413Z,85.52
2022-09-23T04:16:05.581Z,86.28
2022-09-23T04:18:34.265Z,85.77
2022-09-23T04:21:01.677Z,86.21
2022-09-23T04:23:31.484Z,87.29
2022-09-23T04:25:58.972Z,87.27
2022-09-23T04:28:28.358Z,87.54
2022-09-23T04:30:57.887Z,87.90
2022-09-23T04:33:26.573Z,88.57
2022-09-23T04:35:55.734Z,88.43
2022-09-23T04:38:23.973Z,88.33
2022-09-23T04:40:51.461Z,89.52
2022-09-23T04:43:23.507Z,90.11
2022-09-23T04:46:03.183Z,89.60
2022-09-23T04:48:32.269Z,90.16
2022-09-23T04:51:08.333Z,89.91
2022-09-23T04:53:38.300Z,89.75
2022-09-23T04:56:12.034Z,90.32
2022-09-23T04:58:41.372Z,90.69
2022-09-23T05:01:20.039Z,90.63
2022-09-23T05:03:48.203Z,90.66
2022-09-23T05:06:16.548Z,90.55
2022-09-23T05:08:54.650Z,91.72
2022-09-23T05:11:23.439Z,91.70
2022-09-23T05:13:53.080Z,91.97
2022-09-23T05:16:23.388Z,91.62
2022-09-23T05:18:53.149Z,92.19
2022-09-23T05:21:23.722Z,91.40
2022-09-23T05:23:57.033Z,91.75
2022-09-23T05:26:27.368Z,92.10
2022-09-23T05:28:56.021Z,92.05
2022-09-23T05:31:26.623Z,92.22
2022-09-23T05:33:59.592Z,92.28
2022-09-23T05:36:37.536Z,92.35
2022-09-23T05:39:07.802Z,92.18
2022-09-23T05:41:36.683Z,92.13
2022-09-23T05:44:04.356Z,92.16
2022-09-23T05:46:33.323Z,92.21
2022-09-23T05:49:03.634Z,92.02
2022-09-23T05:51:32.690Z,91.47
2022-09-23T05:54:04.373Z,91.71
2022-09-23T05:56:35.113Z,92.01
2022-09-23T05:59:04.636Z,91.80
2022-09-23T06:01:35.404Z,92.15
2022-09-23T06:04:06.373Z,91.88
2022-09-23T06:06:41.545Z,91.85
2022-09-23T06:09:15.039Z,91.52
2022-09-23T06:11:42.791Z,91.44
2022-09-23T06:14:13.160Z,90.95
2022-09-23T06:16:41.417Z,91.13
2022-09-23T06:19:10.566Z,91.30
2022-09-23T06:21:40.811Z,91.48
2022-09-23T06:24:09.770Z,90.97
2022-09-23T06:26:38.423Z,90.79
2022-09-23T06:29:12.224Z,91.03
2022-09-23T06:31:41.687Z,90.80
2022-09-23T06:34:13.211Z,90.91
2022-09-23T06:36:45.912Z,90.71
2022-09-23T06:39:15.601Z,90.29
2022-09-23T06:41:45.444Z,90.42
2022-09-23T06:44:16.468Z,88.91
2022-09-23T06:46:46.231Z,89.50
2022-09-23T06:49:14.091Z,90.02
2022-09-23T06:51:42.024Z,90.17
2022-09-23T06:54:09.636Z,89.88
2022-09-23T06:56:39.523Z,89.97
2022-09-23T06:59:11.075Z,89.61
2022-09-23T07:01:42.158Z,89.54
2022-09-23T07:04:10.708Z,89.11
2022-09-23T07:06:38.980Z,89.17
2022-09-23T07:09:07.715Z,88.90
2022-09-23T07:11:35.904Z,88.59
2022-09-23T07:14:03.523Z,87.81
2022-09-23T07:16:31.822Z,87.99
2022-09-23T07:19:00.518Z,88.24
2022-09-23T07:21:28.006Z,88.37
2022-09-23T07:23:58.274Z,88.41
2022-09-23T07:26:58.528Z,87.98
2022-09-23T07:29:26.331Z,87.76
2022-09-23T07:31:59.169Z,87.42
2022-09-23T07:34:31.208Z,87.70
2022-09-23T07:36:59.787Z,87.08
2022-09-23T07:39:27.261Z,87.05
2022-09-23T07:41:55.391Z,86.96
2022-09-23T07:44:22.959Z,86.41
2022-09-23T07:46:50.466Z,86.02
2022-09-23T07:49:18.347Z,85.69
2022-09-23T07:51:46.532Z,85.26
2022-09-23T07:54:16.657Z,84.50
2022-09-23T07:56:46.386Z,84.25
2022-09-23T07:59:18.588Z,84.82
2022-09-23T08:01:49.393Z,85.14
2022-09-23T08:04:21.027Z,84.93
2022-09-23T08:06:55.348Z,84.91
2022-09-23T08:09:27.832Z,84.55
2022-09-23T08:11:57.518Z,84.14
2022-09-23T08:14:24.971Z,84.03
2022-09-23T08:16:53.075Z,84.00
2022-09-23T08:19:21.907Z,84.19
2022-09-23T08:21:52.366Z,83.73
2022-09-23T08:24:21.158Z,84.19
2022-09-23T08:26:49.172Z,83.93
2022-09-23T08:29:18.248Z,83.26
2022-09-23T08:31:46.286Z,82.98
2022-09-23T08:34:14.907Z,82.80
2022-09-23T08:36:42.781Z,83.13
2022-09-23T08:39:15.719Z,82.66
2022-09-23T08:41:49.688Z,82.56
2022-09-23T08:44:25.702Z,82.56
2022-09-23T08:47:13.296Z,82.23
2022-09-23T08:50:03.869Z,82.46
2022-09-23T08:52:47.231Z,82.16
2022-09-23T08:55:17.195Z,81.53
2022-09-23T09:00:58.261Z,80.70
2022-09-23T09:03:49.183Z,79.96
2022-09-23T09:06:52.440Z,80.59
2022-09-23T09:09:36.858Z,80.80
2022-09-23T09:12:43.610Z,80.61
2022-09-23T09:15:13.914Z,80.30
2022-09-23T09:18:12.381Z,79.49
2022-09-23T09:21:11.574Z,79.10
2022-09-23T09:23:56.451Z,78.79
2022-09-23T09:26:31.252Z,78.71
2022-09-23T09:29:23.385Z,78.08
2022-09-23T09:31:54.685Z,77.32
2022-09-23T09:34:46.327Z,76.89
2022-09-23T09:37:33.728Z,76.71
2022-09-23T09:40:02.161Z,76.43
2022-09-23T09:42:41.423Z,76.10
2022-09-23T09:45:26.896Z,75.27
2022-09-23T09:48:12.006Z,75.20
2022-09-23T09:50:53.847Z,74.93
2022-09-23T09:53:24.828Z,74.61
2022-09-23T09:56:06.033Z,74.84
2022-09-23T09:58:41.679Z,74.81
2022-09-23T10:01:25.095Z,74.65
2022-09-23T10:03:56.877Z,74.71
2022-09-23T10:06:30.557Z,74.36
2022-09-23T10:08:59.851Z,74.35
2022-09-23T10:11:29.517Z,74.21
2022-09-23T10:14:05.330Z,73.91
2022-09-23T10:16:35.058Z,73.42
2022-09-23T10:19:04.285Z,73.29
2022-09-23T10:21:37.160Z,73.56
2022-09-23T10:24:07.948Z,72.80
2022-09-23T10:26:46.720Z,73.30
2022-09-23T10:29:28.896Z,72.97
2022-09-23T10:32:26.285Z,72.38
2022-09-23T10:34:58.464Z,71.74
2022-09-23T10:37:33.184Z,71.07
2022-09-23T10:40:30.445Z,70.64
2022-09-23T10:43:37.372Z,70.23
2022-09-23T10:46:38.924Z,69.95
2022-09-23T10:49:30.263Z,68.01
2022-09-23T10:52:04.726Z,67.45
2022-09-23T10:54:50.977Z,67.35
2022-09-23T10:57:46.621Z,67.37
2022-09-23T11:00:34.952Z,67.68
2022-09-23T11:03:32.239Z,68.32
2022-09-23T11:06:19.042Z,67.99
2022-09-23T11:09:16.036Z,67.56
2022-09-23T11:11:52.939Z,67.13
2022-09-23T11:14:48.890Z,66.22
2022-09-23T11:17:37.756Z,66.52
2022-09-23T11:20:06.104Z,65.98
2022-09-23T11:23:03.692Z,65.69
2022-09-23T11:26:10.854Z,65.88
2022-09-23T11:28:47.495Z,65.87
2022-09-23T11:31:24.231Z,65.63
2022-09-23T11:34:17.864Z,65.13
2022-09-23T11:36:53.079Z,65.09
2022-09-23T11:39:28.512Z,65.01
2022-09-23T11:42:00.521Z,64.62
2022-09-23T11:44:35.760Z,64.82
2022-09-23T11:47:08.816Z,64.81
2022-09-23T11:50:08.193Z,66.44
2022-09-23T11:52:51.047Z,67.14
2022-09-23T11:55:23.538Z,68.13
2022-09-23T11:58:25.161Z,69.16
2022-09-23T12:01:03.644Z,70.00
2022-09-23T12:03:43.914Z,70.10
2022-09-23T12:06:23.731Z,70.35
2022-09-23T12:08:58.056Z,70.32
2022-09-23T12:11:39.547Z,68.07
2022-09-23T12:14:27.281Z,67.80
2022-09-23T12:17:04.626Z,68.11
2022-09-23T12:20:05.123Z,68.65
2022-09-23T12:22:53.250Z,68.34
2022-09-23T12:25:33.616Z,68.70
2022-09-23T12:28:06.970Z,68.56
2022-09-23T12:30:38.118Z,68.52
2022-09-23T12:33:12.536Z,68.47
2022-09-23T12:35:45.843Z,68.72
2022-09-23T12:38:27.318Z,67.98
2022-09-23T12:40:57.169Z,67.13
2022-09-23T12:43:34.982Z,66.22
2022-09-23T12:46:32.284Z,65.47
2022-09-23T12:49:02.536Z,64.83
2022-09-23T12:51:34.779Z,64.72
2022-09-23T12:54:05.839Z,64.27
2022-09-23T12:56:33.239Z,64.29
2022-09-23T12:59:02.102Z,63.46
2022-09-23T13:01:37.523Z,62.87
2022-09-23T13:04:25.636Z,62.05
2022-09-23T13:07:05.675Z,61.55
2022-09-23T13:10:01.112Z,61.31
2022-09-23T13:12:33.408Z,60.62
2022-09-23T13:15:06.327Z,60.29
2022-09-23T13:17:40.278Z,60.57
2022-09-23T13:20:19.894Z,59.37
2022-09-23T13:22:53.297Z,58.86
2022-09-23T13:25:25.868Z,57.95
2022-09-23T13:27:57.492Z,57.41
2022-09-23T13:30:27.005Z,56.66
2022-09-23T13:33:11.548Z,56.45
2022-09-23T13:35:45.081Z,56.48
2022-09-23T13:38:23.850Z,57.27
2022-09-23T13:41:05.674Z,57.57
2022-09-23T13:43:43.330Z,57.57
2022-09-23T13:46:16.885Z,57.46
2022-09-23T13:48:47.643Z,57.25
2022-09-23T13:51:24.622Z,58.05
2022-09-23T13:54:00.721Z,57.34
2022-09-23T13:56:32.728Z,55.95
2022-09-23T13:59:24.198Z,56.80
2022-09-23T14:02:10.877Z,57.04
2022-09-23T14:04:39.570Z,57.36
2022-09-23T14:07:09.555Z,58.41
2022-09-23T14:09:42.426Z,58.54
2022-09-23T14:12:12.423Z,58.60
2022-09-23T14:14:42.642Z,59.54
2022-09-23T14:17:17.376Z,59.37
2022-09-23T14:19:45.654Z,60.03
2022-09-23T14:22:27.426Z,60.51
2022-09-23T14:24:57.442Z,61.20
2022-09-23T14:27:30.030Z,61.74
2022-09-23T14:29:59.103Z,62.29
2022-09-23T14:32:29.131Z,62.65
2022-09-23T14:34:59.784Z,63.93
2022-09-23T14:37:45.592Z,63.57
2022-09-23T14:40:31.318Z,65.06
2022-09-23T14:43:28.206Z,64.71
2022-09-23T14:45:58.260Z,65.27
2022-09-23T14:48:30.184Z,65.70
2022-09-23T14:51:01.921Z,65.08
2022-09-23T14:53:38.260Z,65.91
2022-09-23T14:56:07.163Z,65.93
2022-09-23T14:58:58.394Z,67.27
2022-09-23T15:01:33.673Z,67.45
2022-09-23T15:04:15.107Z,67.82
2022-09-23T15:06:50.206Z,66.97
2022-09-23T15:09:23.862Z,67.20
2022-09-23T15:12:03.610Z,67.70
2022-09-23T15:14:42.217Z,68.25
2022-09-23T15:17:18.681Z,68.46
2022-09-23T15:19:56.711Z,69.49
2022-09-23T15:22:26.939Z,70.00
2022-09-23T15:25:08.394Z,70.05
2022-09-23T15:27:38.645Z,69.96
2022-09-23T15:30:15.743Z,69.42
2022-09-23T15:32:45.104Z,69.57
2022-09-23T15:35:19.264Z,70.12
2022-09-23T15:37:51.726Z,69.84
2022-09-23T15:40:23.149Z,70.59
2022-09-23T15:42:56.193Z,71.10
2022-09-23T15:45:36.250Z,71.43
2022-09-23T15:48:12.509Z,71.33
2022-09-23T15:50:42.416Z,72.07
2022-09-23T15:53:38.661Z,71.72
2022-09-23T15:56:06.741Z,72.07
2022-09-23T15:58:34.606Z,72.29
2022-09-23T16:01:02.478Z,72.42
2022-09-23T16:03:31.150Z,72.99
2022-09-23T16:06:02.536Z,72.76
2022-09-23T16:08:32.454Z,72.79
2022-09-23T16:11:00.575Z,67.76
2022-09-23T16:13:29.086Z,65.73
2022-09-23T16:15:56.633Z,64.25
2022-09-23T16:18:24.834Z,64.51
2022-09-23T16:20:52.286Z,64.80
2022-09-23T16:23:34.811Z,64.60
2022-09-23T16:26:18.402Z,65.34
2022-09-23T16:28:48.728Z,65.62
2022-09-23T16:31:18.149Z,65.97
2022-09-23T16:33:47.612Z,66.22
2022-09-23T16:36:35.898Z,66.83
2022-09-23T16:39:06.527Z,66.88
2022-09-23T16:41:34.167Z,67.86
2022-09-23T16:44:04.635Z,68.00
2022-09-23T16:46:32.753Z,68.05
2022-09-23T16:49:00.985Z,68.67
2022-09-23T16:51:30.631Z,69.05
2022-09-23T16:54:00.248Z,69.67
2022-09-23T16:56:29.329Z,70.03
2022-09-23T16:58:57.620Z,70.88
2022-09-23T17:01:46.776Z,71.61
2022-09-23T17:04:17.373Z,72.40
2022-09-23T17:06:49.072Z,73.37
2022-09-23T17:09:19.678Z,74.19
2022-09-23T17:11:53.028Z,75.11
2022-09-23T17:14:21.707Z,75.81
2022-09-23T17:16:49.154Z,76.36
2022-09-23T17:19:17.422Z,76.64
2022-09-23T17:21:44.867Z,76.81
2022-09-23T17:24:13.276Z,77.68
2022-09-23T17:26:40.710Z,78.34
2022-09-23T17:29:10.915Z,78.69
2022-09-23T17:31:39.207Z,79.22
2022-09-23T17:34:07.439Z,79.43
2022-09-23T17:36:35.210Z,80.00
2022-09-23T17:39:02.775Z,81.07
2022-09-23T17:41:30.238Z,82.46
2022-09-23T17:43:58.782Z,84.14
2022-09-23T17:46:26.725Z,85.93
2022-09-23T17:48:55.724Z,90.41
2022-09-23T17:51:25.433Z,92.01
2022-09-23T17:53:54.107Z,90.73
2022-09-23T17:56:25.112Z,93.58
2022-09-23T17:58:55.102Z,92.14
2022-09-23T18:01:25.233Z,92.60
2022-09-23T18:03:58.101Z,92.93
2022-09-23T18:06:28.345Z,93.94
2022-09-23T18:08:59.308Z,95.04
2022-09-23T18:11:35.877Z,95.15
2022-09-23T18:14:08.089Z,98.96
2022-09-23T18:16:40.299Z,98.54
2022-09-23T18:19:11.251Z,98.26
2022-09-23T18:21:42.008Z,98.67
2022-09-23T18:27:00.182Z,100.00
2022-09-23T18:29:28.209Z,100.00
2022-09-23T18:31:55.953Z,100.00
2022-09-23T18:34:24.902Z,100.00
2022-09-23T18:36:56.105Z,100.00
2022-09-23T18:39:26.775Z,100.00
2022-09-23T18:41:56.009Z,100.00
2022-09-23T18:44:24.391Z,100.00
2022-09-23T18:46:51.995Z,100.00
2022-09-23T18:49:38.340Z,100.00
2022-09-23T18:52:06.657Z,100.00
2022-09-23T18:54:34.135Z,100.00
2022-09-23T18:57:03.028Z,100.00
2022-09-23T18:59:33.535Z,100.00
2022-09-23T19:02:01.950Z,100.00
2022-09-23T19:04:29.629Z,100.00
2022-09-23T19:06:58.070Z,100.00
2022-09-23T19:09:25.925Z,100.00
2022-09-23T19:11:53.625Z,100.00
2022-09-23T19:14:21.786Z,100.00
2022-09-23T19:16:49.548Z,100.00
2022-09-23T19:19:17.530Z,100.00
2022-09-23T19:21:45.702Z,100.00
2022-09-23T19:24:19.799Z,100.00
2022-09-23T19:26:51.125Z,100.00
2022-09-23T19:29:23.294Z,100.00
2022-09-23T19:31:51.237Z,100.00
2022-09-23T19:34:24.826Z,100.00
2022-09-23T19:36:59.139Z,100.00
2022-09-23T19:39:31.255Z,100.00
2022-09-23T19:41:59.608Z,100.00
2022-09-23T19:44:27.418Z,100.00
2022-09-23T19:46:57.765Z,100.00
2022-09-23T19:49:26.230Z,100.00
2022-09-23T19:51:56.089Z,100.00
2022-09-23T19:54:27.050Z,100.00
2022-09-23T19:56:54.757Z,100.00
2022-09-23T19:59:22.159Z,100.00
2022-09-23T20:01:50.116Z,100.00
2022-09-23T20:04:18.065Z,100.00
2022-09-23T20:06:46.236Z,100.00
2022-09-23T20:09:13.874Z,100.00
2022-09-23T20:11:43.240Z,100.00
2022-09-23T20:14:12.000Z,100.00
2022-09-23T20:16:45.587Z,100.00
2022-09-23T20:19:17.340Z,100.00
2022-09-23T20:21:44.927Z,100.00
2022-09-23T20:24:13.557Z,100.00
2022-09-23T20:26:59.479Z,100.00
2022-09-23T20:29:28.058Z,100.00
2022-09-23T20:31:58.681Z,100.00
2022-09-23T20:34:29.776Z,100.00
2022-09-23T20:36:57.185Z,100.00
2022-09-23T20:39:27.761Z,100.00
2022-09-23T20:41:55.588Z,100.00
2022-09-23T20:44:24.197Z,100.00
2022-09-23T20:46:51.976Z,100.00
2022-09-23T20:49:20.996Z,100.00
2022-09-23T20:51:49.213Z,100.00
2022-09-23T20:54:19.301Z,100.00
2022-09-23T20:56:48.676Z,100.00
2022-09-23T20:59:17.997Z,100.00
2022-09-23T21:01:46.606Z,100.00
2022-09-23T21:04:19.630Z,100.00
2022-09-23T21:06:47.760Z,100.00
2022-09-23T21:09:15.173Z,100.00
2022-09-23T21:11:42.765Z,100.00
2022-09-23T21:14:10.606Z,100.00
2022-09-23T21:16:38.641Z,100.00
2022-09-23T21:19:08.132Z,100.00
2022-09-23T21:21:37.334Z,100.00
2022-09-23T21:24:33.638Z,100.00
2022-09-23T21:26:53.612Z,100.00
2022-09-23T21:29:21.150Z,100.00
2022-09-23T21:31:49.986Z,100.00
2022-09-23T21:34:17.713Z,100.00
2022-09-23T21:36:48.353Z,100.00
2022-09-23T21:39:16.001Z,100.00
2022-09-23T21:41:45.033Z,100.00
2022-09-23T21:44:12.504Z,100.00
2022-09-23T21:46:40.131Z,100.00
2022-09-23T21:49:08.242Z,100.00
2022-09-23T21:51:40.829Z,100.00
2022-09-23T21:54:16.052Z,100.00
2022-09-23T21:56:44.896Z,100.00
2022-09-23T21:59:13.020Z,100.00
2022-09-23T22:01:51.773Z,100.00
2022-09-23T22:04:21.923Z,100.00
2022-09-23T22:06:49.857Z,100.00
2022-09-23T22:09:20.953Z,100.00
2022-09-23T22:12:08.439Z,100.00
2022-09-23T22:14:39.332Z,100.00
2022-09-23T22:17:10.464Z,100.00
2022-09-23T22:19:45.798Z,100.00
2022-09-23T22:22:16.750Z,100.00
2022-09-23T22:24:46.186Z,100.00
2022-09-23T22:27:17.847Z,100.00
2022-09-23T22:30:06.149Z,100.00
2022-09-23T22:32:40.827Z,100.00
2022-09-23T22:35:17.778Z,100.00
2022-09-23T22:37:48.310Z,100.00
2022-09-23T22:40:18.320Z,100.00
2022-09-23T22:42:46.730Z,100.00
2022-09-23T22:45:14.709Z,100.00
2022-09-23T22:47:45.562Z,100.00
2022-09-23T22:50:14.900Z,100.00
2022-09-23T22:52:43.781Z,100.00
2022-09-23T22:55:12.735Z,100.00
2022-09-23T22:57:40.212Z,100.00
2022-09-23T23:00:09.869Z,100.00
2022-09-23T23:02:37.326Z,100.00
2022-09-23T23:05:08.534Z,100.00
2022-09-23T23:07:38.180Z,100.00
2022-09-23T23:10:07.341Z,100.00
2022-09-23T23:12:35.332Z,100.00
2022-09-23T23:15:02.783Z,100.00
2022-09-23T23:17:30.621Z,100.00
2022-09-23T23:19:58.079Z,100.00
2022-09-23T23:22:28.676Z,100.00
2022-09-23T23:24:56.510Z,100.00
2022-09-23T23:27:24.443Z,100.00
2022-09-23T23:29:53.115Z,100.00
2022-09-23T23:32:20.594Z,100.00
2022-09-23T23:34:47.965Z,100.00
2022-09-23T23:37:20.078Z,100.00
2022-09-23T23:39:48.448Z,100.00
2022-09-23T23:42:15.928Z,100.00
2022-09-23T23:44:44.455Z,100.00
2022-09-23T23:47:12.438Z,100.00
2022-09-23T23:49:40.197Z,100.00
2022-09-23T23:52:07.615Z,100.00
2022-09-23T23:54:38.697Z,100.00
2022-09-23T23:57:06.177Z,100.00
2022-09-23T23:59:34.639Z,100.00
